Time;durP1;ratioP1;P1;durP2;ratioP2;P2;SDS_P1;SDS_P2;PMS_P1;PMS_P2;Temp;Humidity;BMP_temperature;BMP_pressure;BME280_temperature;BME280_humidity;BME280_pressure;Samples;Min_cycle;Max_cycle;Signal;HPM_P1;HPM_P2
2023/09/22 00:00:54;;;;;;;10.73;7.05;;;;;;;;;;6064069;23;20014;-76
2023/09/22 00:03:23;;;;;;;12.10;7.45;;;;;;;;;;6065642;23;20010;-77
2023/09/22 00:05:49;;;;;;;11.80;7.28;;;;;;;;;;6065519;23;20011;-78
2023/09/22 00:08:15;;;;;;;9.20;6.45;;;;;;;;;;6066013;23;20322;-77
2023/09/22 00:10:41;;;;;;;9.55;7.00;;;;;;;;;;6042962;23;20011;-77
2023/09/22 00:13:06;;;;;;;10.45;7.35;;;;;;;;;;6066065;23;20071;-77
2023/09/22 00:15:34;;;;;;;9.23;6.80;;;;;;;;;;6065964;23;20094;-76
2023/09/22 00:18:00;;;;;;;9.40;6.40;;;;;;;;;;6041794;23;20011;-77
2023/09/22 00:20:26;;;;;;;9.18;5.85;;;;;;;;;;6066700;23;20412;-76
2023/09/22 00:22:52;;;;;;;8.68;6.10;;;;;;;;;;6068929;23;20010;-76
2023/09/22 00:25:18;;;;;;;8.65;6.40;;;;;;;;;;6067243;23;20010;-76
2023/09/22 00:27:44;;;;;;;8.07;6.13;;;;;;;;;;6067487;23;20078;-76
2023/09/22 00:30:13;;;;;;;13.73;6.22;;;;;;;;;;6064928;23;20011;-77
2023/09/22 00:32:39;;;;;;;9.95;6.50;;;;;;;;;;6042328;23;20432;-75
2023/09/22 00:35:11;;;;;;;9.25;6.38;;;;;;;;;;6041666;23;20018;-79
2023/09/22 00:37:40;;;;;;;10.48;6.93;;;;;;;;;;6065665;23;20011;-77
2023/09/22 00:40:08;;;;;;;13.63;6.18;;;;;;;;;;6065692;23;20018;-78
2023/09/22 00:42:34;;;;;;;9.57;5.93;;;;;;;;;;6066455;23;20007;-77
2023/09/22 00:45:00;;;;;;;8.65;5.93;;;;;;;;;;6067917;23;20011;-77
2023/09/22 00:47:26;;;;;;;9.77;6.70;;;;;;;;;;6068902;23;20321;-77
2023/09/22 00:49:53;;;;;;;10.85;5.95;;;;;;;;;;6068987;23;20034;-76
2023/09/22 00:52:22;;;;;;;9.38;6.10;;;;;;;;;;6069020;23;20023;-77
2023/09/22 00:54:51;;;;;;;9.73;6.50;;;;;;;;;;6067543;23;20037;-77
2023/09/22 00:57:18;;;;;;;10.65;6.10;;;;;;;;;;6044587;23;20011;-77
2023/09/22 00:59:45;;;;;;;11.70;5.85;;;;;;;;;;6070451;23;20025;-78
2023/09/22 01:02:11;;;;;;;9.65;5.57;;;;;;;;;;6068672;23;20070;-77
2023/09/22 01:04:37;;;;;;;8.80;5.55;;;;;;;;;;6070834;23;20006;-77
2023/09/22 01:07:03;;;;;;;8.82;5.43;;;;;;;;;;6070095;23;20421;-76
2023/09/22 01:09:29;;;;;;;11.57;5.82;;;;;;;;;;6068767;23;20062;-77
2023/09/22 01:11:56;;;;;;;9.10;6.25;;;;;;;;;;6066563;23;20059;-78
2023/09/22 01:14:22;;;;;;;9.75;5.57;;;;;;;;;;6065568;23;20011;-75
2023/09/22 01:16:50;;;;;;;13.35;5.57;;;;;;;;;;6065725;23;20021;-76
2023/09/22 01:19:20;;;;;;;7.68;5.55;;;;;;;;;;6068153;23;20325;-77
2023/09/22 01:21:49;;;;;;;12.15;6.80;;;;;;;;;;6068427;23;20073;-76
2023/09/22 01:24:15;;;;;;;11.73;6.57;;;;;;;;;;6067262;23;20011;-77
2023/09/22 01:26:41;;;;;;;11.00;6.35;;;;;;;;;;6072030;23;20013;-78
2023/09/22 01:29:08;;;;;;;10.82;7.22;;;;;;;;;;6072379;23;20014;-76
2023/09/22 01:31:33;;;;;;;9.68;6.55;;;;;;;;;;6075315;23;20002;-76
2023/09/22 01:34:03;;;;;;;8.88;6.28;;;;;;;;;;6071102;23;20009;-75
2023/09/22 01:36:29;;;;;;;8.80;6.72;;;;;;;;;;6068266;23;20007;-77
2023/09/22 01:38:57;;;;;;;9.13;6.68;;;;;;;;;;6065395;23;20003;-77
2023/09/22 01:41:24;;;;;;;12.13;7.40;;;;;;;;;;6066564;23;20007;-76
2023/09/22 01:43:52;;;;;;;15.75;8.10;;;;;;;;;;6040754;23;20046;-77
2023/09/22 01:46:17;;;;;;;12.93;6.80;;;;;;;;;;6063199;23;20014;-77
2023/09/22 01:48:45;;;;;;;9.75;6.38;;;;;;;;;;6063822;23;20018;-76
2023/09/22 01:51:10;;;;;;;9.70;7.03;;;;;;;;;;6063720;23;20014;-77
2023/09/22 01:53:36;;;;;;;11.32;7.60;;;;;;;;;;6064383;23;20396;-77
2023/09/22 01:56:02;;;;;;;10.13;6.90;;;;;;;;;;6065374;23;20010;-76
2023/09/22 01:58:28;;;;;;;14.05;5.97;;;;;;;;;;6064660;23;20329;-76
2023/09/22 02:00:53;;;;;;;9.77;6.72;;;;;;;;;;6066376;23;20003;-76
2023/09/22 02:03:19;;;;;;;6.65;5.95;;;;;;;;;;6065033;23;20017;-77
2023/09/22 02:05:45;;;;;;;10.10;5.95;;;;;;;;;;6064972;23;20073;-76
2023/09/22 02:08:11;;;;;;;7.10;5.57;;;;;;;;;;6064570;23;20014;-77
2023/09/22 02:10:38;;;;;;;7.85;5.85;;;;;;;;;;6065124;23;20011;-76
2023/09/22 02:13:05;;;;;;;9.10;5.22;;;;;;;;;;6042155;23;20017;-77
2023/09/22 02:15:32;;;;;;;7.13;5.10;;;;;;;;;;6069556;23;20006;-76
2023/09/22 02:17:58;;;;;;;9.13;5.55;;;;;;;;;;6071491;23;20081;-76
2023/09/22 02:20:27;;;;;;;8.05;5.82;;;;;;;;;;6078147;23;20033;-76
2023/09/22 02:22:56;;;;;;;8.93;5.47;;;;;;;;;;6084187;23;20006;-78
2023/09/22 02:25:22;;;;;;;9.43;6.25;;;;;;;;;;6075217;23;20006;-75
2023/09/22 02:27:54;;;;;;;12.23;6.28;;;;;;;;;;6066456;23;20414;-76
2023/09/22 02:30:21;;;;;;;13.23;5.82;;;;;;;;;;6068047;23;20017;-76
2023/09/22 02:32:48;;;;;;;11.02;5.72;;;;;;;;;;6066490;23;20013;-75
2023/09/22 02:35:18;;;;;;;7.72;5.25;;;;;;;;;;6065873;23;20014;-77
2023/09/22 02:37:44;;;;;;;8.82;5.57;;;;;;;;;;6065999;23;20021;-78
2023/09/22 02:40:12;;;;;;;8.15;5.40;;;;;;;;;;6064385;23;20420;-77
2023/09/22 02:42:38;;;;;;;8.25;5.50;;;;;;;;;;6064186;23;20091;-76
2023/09/22 02:45:09;;;;;;;16.42;6.18;;;;;;;;;;6039666;23;20015;-78
2023/09/22 02:47:54;;;;;;;7.50;5.72;;;;;;;;;;6065379;23;20011;-77
2023/09/22 02:50:21;;;;;;;11.65;5.68;;;;;;;;;;6065336;23;20019;-77
2023/09/22 02:52:47;;;;;;;10.52;5.22;;;;;;;;;;6065042;23;20348;-76
2023/09/22 02:55:13;;;;;;;7.93;5.57;;;;;;;;;;6066771;23;20007;-77
2023/09/22 02:57:47;;;;;;;8.30;5.20;;;;;;;;;;6067144;23;20016;-76
2023/09/22 03:00:20;;;;;;;7.60;5.13;;;;;;;;;;6067251;23;20496;-77
2023/09/22 03:02:52;;;;;;;8.75;5.60;;;;;;;;;;6067229;23;20541;-78
2023/09/22 03:05:18;;;;;;;11.07;5.10;;;;;;;;;;6065421;23;20011;-78
2023/09/22 03:07:44;;;;;;;7.82;5.40;;;;;;;;;;6065655;23;20066;-76
2023/09/22 03:10:11;;;;;;;8.98;5.70;;;;;;;;;;6067179;23;20010;-77
2023/09/22 03:12:38;;;;;;;7.45;5.78;;;;;;;;;;6065853;23;20010;-77
2023/09/22 03:15:05;;;;;;;8.55;5.97;;;;;;;;;;6065363;23;20006;-76
2023/09/22 03:17:31;;;;;;;9.50;5.60;;;;;;;;;;6065381;23;20097;-76
2023/09/22 03:19:58;;;;;;;7.25;5.78;;;;;;;;;;6065387;23;20409;-77
2023/09/22 03:22:27;;;;;;;8.70;6.15;;;;;;;;;;6065646;23;20014;-78
2023/09/22 03:24:53;;;;;;;9.45;6.00;;;;;;;;;;6065207;23;20022;-77
2023/09/22 03:27:19;;;;;;;8.55;6.40;;;;;;;;;;6067235;23;20003;-77
2023/09/22 03:29:45;;;;;;;7.88;5.97;;;;;;;;;;6065961;23;20041;-77
2023/09/22 03:32:11;;;;;;;9.55;6.22;;;;;;;;;;6065422;23;20006;-77
2023/09/22 03:34:37;;;;;;;9.25;6.60;;;;;;;;;;6067651;23;20063;-79
2023/09/22 03:37:08;;;;;;;9.43;6.70;;;;;;;;;;6065319;23;20038;-77
2023/09/22 03:39:34;;;;;;;10.90;6.78;;;;;;;;;;6066172;23;20003;-76
2023/09/22 03:42:00;;;;;;;8.00;6.20;;;;;;;;;;6065644;23;20330;-77
2023/09/22 03:44:26;;;;;;;11.82;7.28;;;;;;;;;;6066001;23;20007;-76
2023/09/22 03:46:52;;;;;;;8.95;6.13;;;;;;;;;;6066379;23;20018;-76
2023/09/22 03:49:18;;;;;;;10.13;6.28;;;;;;;;;;6067241;23;20013;-77
2023/09/22 03:51:44;;;;;;;9.00;6.32;;;;;;;;;;6065118;23;20022;-76
2023/09/22 03:54:10;;;;;;;8.65;7.05;;;;;;;;;;6067536;23;20428;-76
2023/09/22 03:56:39;;;;;;;10.05;7.35;;;;;;;;;;6066081;23;20425;-76
2023/09/22 03:59:07;;;;;;;10.43;7.25;;;;;;;;;;6066309;23;20177;-77
2023/09/22 04:01:35;;;;;;;11.55;7.25;;;;;;;;;;6069457;23;20021;-81
2023/09/22 04:04:03;;;;;;;9.10;6.93;;;;;;;;;;6047019;23;20413;-80
2023/09/22 04:06:30;;;;;;;9.27;6.28;;;;;;;;;;6072961;23;20003;-82
2023/09/22 04:08:56;;;;;;;11.43;6.88;;;;;;;;;;6073457;23;20011;-80
2023/09/22 04:11:22;;;;;;;9.88;6.55;;;;;;;;;;6069887;23;20022;-79
2023/09/22 04:13:48;;;;;;;10.77;7.22;;;;;;;;;;6073768;23;20467;-80
2023/09/22 04:16:14;;;;;;;12.48;7.93;;;;;;;;;;6071014;23;20032;-79
2023/09/22 04:18:39;;;;;;;9.65;6.88;;;;;;;;;;6070264;23;20418;-82
2023/09/22 04:21:07;;;;;;;10.80;7.30;;;;;;;;;;6070115;23;20014;-80
2023/09/22 04:23:34;;;;;;;8.75;6.65;;;;;;;;;;6068968;23;20026;-80
2023/09/22 04:26:09;;;;;;;13.13;7.55;;;;;;;;;;6069630;23;20007;-81
2023/09/22 04:28:36;;;;;;;13.88;8.10;;;;;;;;;;6046457;23;20030;-79
2023/09/22 04:31:03;;;;;;;17.25;7.60;;;;;;;;;;6071127;23;20006;-81
2023/09/22 04:33:29;;;;;;;10.45;7.22;;;;;;;;;;6046865;23;20018;-80
2023/09/22 04:35:54;;;;;;;10.32;8.35;;;;;;;;;;6074169;23;20007;-81
2023/09/22 04:38:20;;;;;;;14.05;7.63;;;;;;;;;;6071637;23;20066;-78
2023/09/22 04:40:47;;;;;;;18.65;8.38;;;;;;;;;;6071931;23;20042;-80
2023/09/22 04:43:13;;;;;;;14.52;7.30;;;;;;;;;;6072675;23;20444;-81
2023/09/22 04:45:41;;;;;;;14.82;7.97;;;;;;;;;;6070564;23;20013;-79
2023/09/22 04:48:10;;;;;;;9.82;7.03;;;;;;;;;;6069740;23;20007;-81
2023/09/22 04:50:40;;;;;;;15.18;6.32;;;;;;;;;;6070438;23;20102;-78
2023/09/22 04:53:07;;;;;;;10.10;6.78;;;;;;;;;;6048791;23;20026;-82
2023/09/22 04:55:37;;;;;;;12.40;8.45;;;;;;;;;;6073525;23;20046;-79
2023/09/22 04:58:03;;;;;;;9.05;6.97;;;;;;;;;;6068326;23;20010;-81
2023/09/22 05:00:33;;;;;;;12.68;7.10;;;;;;;;;;6068175;23;20081;-80
2023/09/22 05:02:59;;;;;;;11.45;6.57;;;;;;;;;;6071288;23;20010;-80
2023/09/22 05:05:28;;;;;;;10.05;6.72;;;;;;;;;;6073917;23;20429;-80
2023/09/22 05:07:55;;;;;;;10.15;6.00;;;;;;;;;;6072939;23;20018;-79
2023/09/22 05:10:21;;;;;;;10.68;5.50;;;;;;;;;;6071045;23;20003;-80
2023/09/22 05:12:47;;;;;;;9.32;5.57;;;;;;;;;;6070791;23;20021;-81
2023/09/22 05:15:12;;;;;;;13.48;7.30;;;;;;;;;;6068640;23;20011;-81
2023/09/22 05:17:38;;;;;;;12.73;6.82;;;;;;;;;;6065682;23;20067;-80
2023/09/22 05:20:11;;;;;;;9.13;5.70;;;;;;;;;;6064210;23;20007;-77
2023/09/22 05:22:38;;;;;;;7.85;5.05;;;;;;;;;;6069478;23;20526;-79
2023/09/22 05:25:08;;;;;;;4.88;4.38;;;;;;;;;;6026255;23;20018;-75
2023/09/22 05:27:35;;;;;;;10.88;5.53;;;;;;;;;;6072542;23;20013;-79
2023/09/22 05:30:07;;;;;;;15.15;5.00;;;;;;;;;;6068683;23;20006;-78
2023/09/22 05:32:32;;;;;;;6.97;4.78;;;;;;;;;;6045136;23;20031;-77
2023/09/22 05:35:01;;;;;;;7.07;4.93;;;;;;;;;;6065605;23;20002;-77
2023/09/22 05:37:27;;;;;;;8.82;5.07;;;;;;;;;;6067576;23;20018;-79
2023/09/22 05:39:53;;;;;;;10.35;5.00;;;;;;;;;;6073424;23;20003;-83
2023/09/22 05:42:18;;;;;;;13.45;4.68;;;;;;;;;;6069543;23;20006;-81
2023/09/22 05:44:46;;;;;;;9.23;5.15;;;;;;;;;;6068461;23;20045;-82
2023/09/22 05:47:13;;;;;;;16.95;6.28;;;;;;;;;;6070803;23;20380;-81
2023/09/22 05:49:39;;;;;;;6.22;4.72;;;;;;;;;;6073786;23;20010;-85
2023/09/22 05:52:06;;;;;;;8.30;4.80;;;;;;;;;;6075586;23;20026;-81
2023/09/22 05:54:32;;;;;;;7.57;4.60;;;;;;;;;;6073982;23;20113;-83
2023/09/22 05:56:59;;;;;;;10.48;5.00;;;;;;;;;;6070725;23;20086;-76
2023/09/22 05:59:28;;;;;;;7.18;4.53;;;;;;;;;;6066794;23;20445;-76
2023/09/22 06:01:57;;;;;;;7.18;4.45;;;;;;;;;;6064642;23;20007;-75
2023/09/22 06:04:24;;;;;;;7.85;4.95;;;;;;;;;;6076934;23;20022;-76
2023/09/22 06:06:53;;;;;;;6.65;4.80;;;;;;;;;;6072803;23;20003;-77
2023/09/22 06:09:21;;;;;;;7.90;4.63;;;;;;;;;;6069991;23;20014;-77
2023/09/22 06:11:47;;;;;;;9.60;4.45;;;;;;;;;;6069051;23;20425;-78
2023/09/22 06:14:13;;;;;;;7.38;4.50;;;;;;;;;;6065404;23;20010;-78
2023/09/22 06:16:40;;;;;;;5.70;4.15;;;;;;;;;;6066365;23;20494;-80
2023/09/22 06:19:05;;;;;;;9.30;4.68;;;;;;;;;;6069182;23;20003;-78
2023/09/22 06:21:31;;;;;;;8.77;4.72;;;;;;;;;;6044078;23;20070;-79
2023/09/22 06:23:57;;;;;;;8.00;3.97;;;;;;;;;;6069765;23;20144;-78
2023/09/22 06:26:23;;;;;;;8.52;4.10;;;;;;;;;;6050764;23;20500;-79
2023/09/22 06:28:50;;;;;;;8.15;4.18;;;;;;;;;;6076231;23;20041;-79
2023/09/22 06:31:15;;;;;;;7.03;4.35;;;;;;;;;;6074570;23;20556;-77
2023/09/22 06:33:43;;;;;;;10.88;4.20;;;;;;;;;;6079839;23;20085;-76
2023/09/22 06:36:10;;;;;;;11.63;4.88;;;;;;;;;;6083953;23;20028;-77
2023/09/22 06:38:37;;;;;;;10.07;5.22;;;;;;;;;;6072844;23;19999;-78
2023/09/22 06:41:04;;;;;;;8.40;4.82;;;;;;;;;;6070525;23;20034;-77
2023/09/22 06:43:33;;;;;;;6.32;4.38;;;;;;;;;;6073037;23;20054;-78
2023/09/22 06:46:02;;;;;;;7.68;3.70;;;;;;;;;;6069467;23;20010;-76
2023/09/22 06:48:29;;;;;;;8.52;3.85;;;;;;;;;;6068751;23;20035;-78
2023/09/22 06:51:00;;;;;;;7.10;4.25;;;;;;;;;;6065387;23;20014;-75
2023/09/22 06:53:28;;;;;;;5.10;3.67;;;;;;;;;;6064889;23;20023;-74
2023/09/22 06:56:11;;;;;;;8.00;3.33;;;;;;;;;;6068726;23;20021;-78
2023/09/22 06:58:40;;;;;;;3.90;3.20;;;;;;;;;;6067543;23;20006;-77
2023/09/22 07:01:16;;;;;;;5.30;3.33;;;;;;;;;;6064415;23;20017;-77
2023/09/22 07:04:03;;;;;;;5.03;3.03;;;;;;;;;;6062151;23;20086;-78
2023/09/22 07:06:33;;;;;;;4.70;2.80;;;;;;;;;;6060624;23;20531;-76
2023/09/22 07:08:59;;;;;;;9.27;3.13;;;;;;;;;;6059623;23;20007;-77
2023/09/22 07:11:45;;;;;;;7.32;3.42;;;;;;;;;;6060056;23;20018;-77
2023/09/22 07:14:18;;;;;;;4.35;2.70;;;;;;;;;;6058392;23;20010;-77
2023/09/22 07:16:56;;;;;;;4.45;2.75;;;;;;;;;;6057360;23;20014;-77
2023/09/22 07:19:34;;;;;;;4.75;2.50;;;;;;;;;;6059738;23;20054;-78
2023/09/22 07:22:03;;;;;;;3.65;2.28;;;;;;;;;;6060412;23;20011;-77
2023/09/22 07:24:38;;;;;;;7.28;2.55;;;;;;;;;;6057775;23;20014;-76
2023/09/22 07:27:08;;;;;;;4.47;2.05;;;;;;;;;;6057901;23;20715;-75
2023/09/22 07:29:35;;;;;;;3.78;2.53;;;;;;;;;;6062687;23;20046;-78
2023/09/22 07:32:34;;;;;;;2.75;1.58;;;;;;;;;;6063925;23;20097;-76
2023/09/22 07:35:01;;;;;;;2.78;1.30;;;;;;;;;;6059766;23;20082;-77
2023/09/22 07:37:27;;;;;;;2.08;1.20;;;;;;;;;;6060397;23;20089;-76
2023/09/22 07:39:53;;;;;;;5.97;1.20;;;;;;;;;;6059653;23;20704;-77
2023/09/22 07:42:22;;;;;;;1.90;0.98;;;;;;;;;;6061489;23;20002;-77
2023/09/22 07:44:48;;;;;;;3.38;1.27;;;;;;;;;;6062080;23;20663;-77
2023/09/22 07:47:15;;;;;;;1.75;1.00;;;;;;;;;;6061675;23;20019;-78
2023/09/22 07:49:42;;;;;;;1.25;0.95;;;;;;;;;;6064981;23;20427;-77
2023/09/22 07:52:11;;;;;;;1.08;0.80;;;;;;;;;;6062254;23;20106;-75
2023/09/22 07:54:37;;;;;;;1.55;0.80;;;;;;;;;;6060931;23;20082;-76
2023/09/22 07:57:04;;;;;;;3.53;0.80;;;;;;;;;;6063533;23;20070;-76
2023/09/22 07:59:31;;;;;;;1.63;0.80;;;;;;;;;;6064877;23;20086;-77
2023/09/22 08:01:59;;;;;;;5.55;0.88;;;;;;;;;;6058753;23;20007;-77
2023/09/22 08:04:26;;;;;;;1.73;0.45;;;;;;;;;;6038215;23;20034;-75
2023/09/22 08:06:52;;;;;;;1.25;0.77;;;;;;;;;;6061723;23;20297;-76
2023/09/22 08:09:18;;;;;;;1.45;0.50;;;;;;;;;;6060640;23;20465;-78
2023/09/22 08:11:44;;;;;;;0.43;0.43;;;;;;;;;;6063612;23;20015;-77
2023/09/22 08:14:10;;;;;;;0.98;0.47;;;;;;;;;;6063140;23;20037;-76
2023/09/22 08:16:35;;;;;;;0.77;0.57;;;;;;;;;;6062686;23;20031;-77
2023/09/22 08:19:01;;;;;;;0.88;0.38;;;;;;;;;;6066353;23;20287;-77
2023/09/22 08:21:27;;;;;;;0.73;0.50;;;;;;;;;;6068654;23;20448;-76
2023/09/22 08:23:52;;;;;;;0.88;0.70;;;;;;;;;;6072679;23;20011;-75
2023/09/22 08:26:18;;;;;;;2.00;0.50;;;;;;;;;;6066416;23;20018;-75
2023/09/22 08:28:45;;;;;;;2.00;0.80;;;;;;;;;;6060910;23;20033;-75
2023/09/22 08:31:11;;;;;;;1.77;0.60;;;;;;;;;;6060031;23;20693;-76
2023/09/22 08:33:38;;;;;;;4.57;0.70;;;;;;;;;;6056463;23;20010;-75
2023/09/22 08:36:04;;;;;;;2.40;0.45;;;;;;;;;;6058678;23;20306;-73
2023/09/22 08:38:34;;;;;;;0.98;0.35;;;;;;;;;;6061232;23;20062;-74
2023/09/22 08:41:03;;;;;;;1.70;0.60;;;;;;;;;;6062387;23;20013;-75
2023/09/22 08:43:30;;;;;;;0.75;0.52;;;;;;;;;;6060567;23;20563;-76
2023/09/22 08:45:55;;;;;;;1.10;0.73;;;;;;;;;;6060978;23;20018;-78
2023/09/22 08:48:24;;;;;;;4.80;0.50;;;;;;;;;;6062348;23;20010;-77
2023/09/22 08:50:50;;;;;;;1.67;0.65;;;;;;;;;;6039503;23;20011;-77
2023/09/22 08:53:16;;;;;;;2.15;0.70;;;;;;;;;;6059808;23;20038;-77
2023/09/22 08:55:49;;;;;;;0.40;0.40;;;;;;;;;;6062056;23;20142;-76
2023/09/22 08:58:18;;;;;;;6.55;0.63;;;;;;;;;;6059258;23;20006;-78
2023/09/22 09:00:51;;;;;;;6.05;1.40;;;;;;;;;;6062276;23;20109;-76
2023/09/22 09:03:20;;;;;;;1.08;0.50;;;;;;;;;;6057056;23;20030;-77
2023/09/22 09:05:47;;;;;;;0.35;0.25;;;;;;;;;;6057113;23;20018;-76
2023/09/22 09:08:19;;;;;;;2.92;0.60;;;;;;;;;;6056445;23;20007;-77
2023/09/22 09:10:46;;;;;;;2.05;0.30;;;;;;;;;;6058090;23;20011;-77
2023/09/22 09:13:28;;;;;;;4.03;0.70;;;;;;;;;;6058492;23;20015;-77
2023/09/22 09:15:57;;;;;;;4.93;0.40;;;;;;;;;;6060761;23;20014;-78
2023/09/22 09:18:24;;;;;;;2.13;0.30;;;;;;;;;;6059438;23;20019;-77
2023/09/22 09:21:10;;;;;;;1.70;0.68;;;;;;;;;;6060877;23;20547;-77
2023/09/22 09:23:38;;;;;;;2.17;0.22;;;;;;;;;;6062312;23;20022;-76
2023/09/22 09:26:04;;;;;;;2.97;0.52;;;;;;;;;;6059543;23;20017;-77
2023/09/22 09:28:30;;;;;;;1.55;0.50;;;;;;;;;;6061962;23;20038;-78
2023/09/22 09:30:59;;;;;;;0.20;0.20;;;;;;;;;;6059383;23;20054;-77
2023/09/22 09:33:27;;;;;;;3.83;2.42;;;;;;;;;;6062258;23;20081;-76
2023/09/22 09:35:54;;;;;;;1.55;0.75;;;;;;;;;;6059762;23;20066;-76
2023/09/22 09:38:22;;;;;;;1.05;0.40;;;;;;;;;;6058576;23;20029;-76
2023/09/22 09:40:51;;;;;;;0.98;0.40;;;;;;;;;;6058263;23;20381;-76
2023/09/22 09:43:16;;;;;;;0.50;0.40;;;;;;;;;;6062133;23;20132;-75
2023/09/22 09:45:44;;;;;;;0.60;0.60;;;;;;;;;;6035635;23;20021;-76
2023/09/22 09:48:16;;;;;;;1.20;0.55;;;;;;;;;;6058948;23;20010;-77
2023/09/22 09:50:53;;;;;;;1.80;0.70;;;;;;;;;;6057788;23;20359;-75
2023/09/22 09:53:42;;;;;;;1.33;0.50;;;;;;;;;;6058095;23;20029;-76
2023/09/22 09:56:08;;;;;;;0.47;0.47;;;;;;;;;;6058110;23;20381;-74
2023/09/22 09:58:35;;;;;;;2.42;0.40;;;;;;;;;;6057317;23;20011;-76
2023/09/22 10:01:02;;;;;;;2.17;0.60;;;;;;;;;;6059422;23;20074;-76
2023/09/22 10:03:28;;;;;;;2.22;0.68;;;;;;;;;;6063022;23;20046;-75
2023/09/22 10:05:56;;;;;;;0.90;0.45;;;;;;;;;;6060997;23;20011;-75
2023/09/22 10:08:28;;;;;;;1.52;0.68;;;;;;;;;;6061371;23;20035;-76
2023/09/22 10:10:59;;;;;;;6.32;0.75;;;;;;;;;;6062937;23;20003;-77
2023/09/22 10:13:26;;;;;;;1.92;0.40;;;;;;;;;;6061862;23;20023;-76
2023/09/22 10:15:56;;;;;;;1.52;0.63;;;;;;;;;;6064681;23;20120;-75
2023/09/22 10:18:44;;;;;;;0.82;0.80;;;;;;;;;;6063266;23;20014;-77
2023/09/22 10:21:33;;;;;;;0.90;0.40;;;;;;;;;;6063068;23;20006;-75
2023/09/22 10:24:14;;;;;;;1.75;0.82;;;;;;;;;;6061416;23;20037;-76
2023/09/22 10:27:06;;;;;;;0.60;0.45;;;;;;;;;;6062682;23;20042;-74
2023/09/22 10:29:34;;;;;;;0.50;0.40;;;;;;;;;;6066532;23;20118;-74
2023/09/22 10:32:17;;;;;;;4.53;0.70;;;;;;;;;;6064529;23;20010;-73
2023/09/22 10:35:01;;;;;;;3.67;0.60;;;;;;;;;;6066572;23;20014;-73
2023/09/22 10:37:33;;;;;;;4.63;1.00;;;;;;;;;;6069225;23;20006;-75
2023/09/22 10:40:08;;;;;;;4.72;1.38;;;;;;;;;;6066913;23;20029;-72
2023/09/22 10:42:54;;;;;;;3.78;1.38;;;;;;;;;;6068796;23;20424;-73
2023/09/22 10:45:25;;;;;;;7.25;3.60;;;;;;;;;;6068139;23;20010;-74
2023/09/22 10:47:52;;;;;;;4.82;1.50;;;;;;;;;;6071505;23;20026;-76
2023/09/22 10:50:50;;;;;;;1.88;0.57;;;;;;;;;;6075793;23;20163;-72
2023/09/22 10:53:16;;;;;;;2.17;0.88;;;;;;;;;;6022940;23;20042;-74
2023/09/22 10:55:44;;;;;;;1.50;0.55;;;;;;;;;;6066198;23;20062;-74
2023/09/22 10:58:12;;;;;;;2.20;0.85;;;;;;;;;;6067617;23;20007;-75
2023/09/22 11:00:40;;;;;;;1.52;0.57;;;;;;;;;;6064293;23;20005;-75
2023/09/22 11:03:16;;;;;;;2.60;0.70;;;;;;;;;;6065200;23;20026;-74
2023/09/22 11:05:44;;;;;;;1.92;0.60;;;;;;;;;;6038195;23;20715;-76
2023/09/22 11:08:17;;;;;;;2.65;0.90;;;;;;;;;;6062947;23;20007;-73
2023/09/22 11:10:55;;;;;;;2.22;0.70;;;;;;;;;;6063167;23;20018;-78
2023/09/22 11:13:24;;;;;;;1.50;0.60;;;;;;;;;;6060990;23;20018;-75
2023/09/22 11:15:54;;;;;;;1.35;0.80;;;;;;;;;;6035445;23;20011;-75
2023/09/22 11:18:34;;;;;;;2.17;0.80;;;;;;;;;;6061996;23;20003;-75
2023/09/22 11:21:20;;;;;;;2.72;0.90;;;;;;;;;;6064614;23;20344;-75
2023/09/22 11:23:47;;;;;;;3.55;0.80;;;;;;;;;;6064340;23;20649;-75
2023/09/22 11:26:14;;;;;;;2.00;0.90;;;;;;;;;;6063005;23;20091;-74
2023/09/22 11:28:41;;;;;;;2.45;0.65;;;;;;;;;;6039444;23;20007;-74
2023/09/22 11:31:16;;;;;;;3.00;1.83;;;;;;;;;;6065567;23;20014;-74
2023/09/22 11:33:43;;;;;;;2.53;0.70;;;;;;;;;;6067570;23;20067;-74
2023/09/22 11:36:10;;;;;;;2.00;0.90;;;;;;;;;;6066857;23;20056;-74
2023/09/22 11:38:39;;;;;;;1.95;0.82;;;;;;;;;;6067106;23;20014;-74
2023/09/22 11:41:17;;;;;;;1.38;0.80;;;;;;;;;;6065446;23;20425;-76
2023/09/22 11:43:48;;;;;;;5.97;1.10;;;;;;;;;;6065795;23;20027;-75
2023/09/22 11:46:23;;;;;;;4.45;0.90;;;;;;;;;;6061872;23;20054;-75
2023/09/22 11:48:59;;;;;;;8.35;1.08;;;;;;;;;;6065801;23;20006;-73
2023/09/22 11:51:58;;;;;;;4.72;1.15;;;;;;;;;;6064970;23;20480;-76
2023/09/22 11:54:29;;;;;;;2.72;0.70;;;;;;;;;;6028512;23;20022;-74
2023/09/22 11:56:58;;;;;;;3.78;0.90;;;;;;;;;;6059759;23;20003;-74
2023/09/22 11:59:31;;;;;;;3.78;0.95;;;;;;;;;;6058724;23;20030;-77
2023/09/22 12:01:58;;;;;;;2.30;0.80;;;;;;;;;;6036121;23;20094;-76
2023/09/22 12:04:24;;;;;;;8.07;1.00;;;;;;;;;;6063362;23;20059;-75
2023/09/22 12:06:51;;;;;;;4.32;0.80;;;;;;;;;;6062376;23;20377;-75
2023/09/22 12:09:18;;;;;;;2.25;0.80;;;;;;;;;;6062787;23;20011;-75
2023/09/22 12:11:45;;;;;;;1.70;0.90;;;;;;;;;;6060170;23;20015;-74
2023/09/22 12:14:11;;;;;;;2.70;1.30;;;;;;;;;;6039280;23;20160;-74
2023/09/22 12:16:38;;;;;;;4.57;1.23;;;;;;;;;;6062057;23;20007;-74
2023/09/22 12:19:04;;;;;;;4.43;1.00;;;;;;;;;;6038224;23;20097;-76
2023/09/22 12:21:30;;;;;;;1.73;0.70;;;;;;;;;;6059467;23;20062;-75
2023/09/22 12:23:56;;;;;;;1.27;0.70;;;;;;;;;;6058861;23;20689;-76
2023/09/22 12:26:23;;;;;;;1.30;0.70;;;;;;;;;;6062227;23;20007;-75
2023/09/22 12:28:49;;;;;;;5.30;1.58;;;;;;;;;;6037917;23;20528;-76
2023/09/22 12:31:21;;;;;;;12.20;1.60;;;;;;;;;;6063612;23;20078;-74
2023/09/22 12:33:47;;;;;;;6.20;1.00;;;;;;;;;;6061451;23;20010;-76
2023/09/22 12:36:14;;;;;;;2.92;0.95;;;;;;;;;;6037468;23;20365;-76
2023/09/22 12:38:41;;;;;;;0.60;0.60;;;;;;;;;;6062859;23;20007;-74
2023/09/22 12:41:07;;;;;;;2.97;0.80;;;;;;;;;;6063277;23;20416;-75
2023/09/22 12:43:33;;;;;;;2.42;0.68;;;;;;;;;;6066485;23;20003;-74
2023/09/22 12:45:58;;;;;;;2.47;1.00;;;;;;;;;;6039607;23;20093;-74
2023/09/22 12:48:24;;;;;;;1.60;0.80;;;;;;;;;;6063651;23;20113;-76
2023/09/22 12:50:55;;;;;;;1.42;0.70;;;;;;;;;;6062528;23;20014;-73
2023/09/22 12:53:20;;;;;;;7.72;1.25;;;;;;;;;;6060058;23;20437;-75
2023/09/22 12:55:46;;;;;;;2.97;1.00;;;;;;;;;;6061311;23;20018;-74
2023/09/22 12:58:11;;;;;;;2.17;0.70;;;;;;;;;;6061508;23;20098;-73
2023/09/22 13:00:42;;;;;;;1.45;0.88;;;;;;;;;;6063242;23;20421;-74
2023/09/22 13:03:10;;;;;;;9.82;2.22;;;;;;;;;;6067928;23;20021;-75
2023/09/22 13:06:10;;;;;;;3.42;0.90;;;;;;;;;;6076125;23;20038;-75
2023/09/22 13:08:38;;;;;;;19.13;2.25;;;;;;;;;;6070105;23;20014;-76
2023/09/22 13:11:03;;;;;;;6.05;1.30;;;;;;;;;;6063054;23;20022;-74
2023/09/22 13:13:29;;;;;;;2.40;0.70;;;;;;;;;;6062599;23;20007;-76
2023/09/22 13:15:55;;;;;;;3.92;0.93;;;;;;;;;;6060554;23;20014;-74
2023/09/22 13:18:20;;;;;;;3.55;1.33;;;;;;;;;;6061388;23;20122;-76
2023/09/22 13:20:46;;;;;;;1.55;0.55;;;;;;;;;;6059926;23;20414;-74
2023/09/22 13:23:16;;;;;;;7.63;2.13;;;;;;;;;;6059087;23;20070;-76
2023/09/22 13:25:45;;;;;;;8.93;1.58;;;;;;;;;;6061678;23;20007;-75
2023/09/22 13:28:11;;;;;;;1.30;0.82;;;;;;;;;;6060719;23;20010;-76
2023/09/22 13:30:42;;;;;;;3.75;0.98;;;;;;;;;;6062769;23;20010;-74
2023/09/22 13:33:12;;;;;;;2.35;1.10;;;;;;;;;;6058403;23;20044;-75
2023/09/22 13:35:41;;;;;;;12.35;1.38;;;;;;;;;;6058572;23;20042;-74
2023/09/22 13:38:07;;;;;;;3.25;1.20;;;;;;;;;;6060222;23;20017;-73
2023/09/22 13:40:33;;;;;;;3.13;0.93;;;;;;;;;;6060567;23;20050;-75
2023/09/22 13:43:00;;;;;;;3.53;1.05;;;;;;;;;;6057416;23;20011;-74
2023/09/22 13:45:26;;;;;;;1.98;0.73;;;;;;;;;;6058366;23;20431;-76
2023/09/22 13:47:52;;;;;;;0.57;0.50;;;;;;;;;;6060324;23;20081;-74
2023/09/22 13:50:18;;;;;;;4.45;0.95;;;;;;;;;;6058499;23;20666;-76
2023/09/22 13:52:47;;;;;;;1.27;0.70;;;;;;;;;;6057694;23;20045;-74
2023/09/22 13:55:13;;;;;;;7.00;3.53;;;;;;;;;;6059887;23;20101;-74
2023/09/22 13:57:38;;;;;;;2.58;1.50;;;;;;;;;;6060661;23;20034;-74
2023/09/22 14:00:10;;;;;;;2.67;1.20;;;;;;;;;;6058868;23;20013;-73
2023/09/22 14:02:40;;;;;;;2.85;1.05;;;;;;;;;;6060366;23;20066;-74
2023/09/22 14:05:07;;;;;;;2.00;1.00;;;;;;;;;;6060571;23;20152;-75
2023/09/22 14:07:33;;;;;;;1.25;0.82;;;;;;;;;;6057742;23;20015;-74
2023/09/22 14:09:59;;;;;;;2.33;0.90;;;;;;;;;;6058488;23;20010;-76
2023/09/22 14:12:24;;;;;;;0.93;0.70;;;;;;;;;;6063060;23;20062;-74
2023/09/22 14:14:51;;;;;;;1.23;0.93;;;;;;;;;;6061856;23;20023;-75
2023/09/22 14:17:19;;;;;;;0.80;0.80;;;;;;;;;;6061309;23;20011;-74
2023/09/22 14:19:44;;;;;;;2.95;0.93;;;;;;;;;;6061510;23;20468;-74
2023/09/22 14:22:10;;;;;;;4.90;1.05;;;;;;;;;;6063292;23;20037;-77
2023/09/22 14:24:37;;;;;;;2.25;1.17;;;;;;;;;;6061724;23;20011;-75
2023/09/22 14:27:02;;;;;;;2.95;0.90;;;;;;;;;;6061858;23;20214;-76
2023/09/22 14:29:28;;;;;;;2.25;0.82;;;;;;;;;;6061626;23;20007;-75
2023/09/22 14:31:53;;;;;;;4.15;1.08;;;;;;;;;;6059065;23;20094;-76
2023/09/22 14:34:21;;;;;;;1.17;0.90;;;;;;;;;;6059510;23;20022;-76
2023/09/22 14:36:46;;;;;;;2.67;1.08;;;;;;;;;;6036271;23;20038;-77
2023/09/22 14:39:12;;;;;;;1.42;1.02;;;;;;;;;;6062796;23;20003;-77
2023/09/22 14:41:38;;;;;;;2.03;0.90;;;;;;;;;;6063686;23;20408;-77
2023/09/22 14:44:04;;;;;;;2.55;1.02;;;;;;;;;;6066420;23;20013;-77
2023/09/22 14:46:31;;;;;;;2.30;1.25;;;;;;;;;;6073917;23;20018;-76
2023/09/22 14:48:56;;;;;;;1.38;0.85;;;;;;;;;;6070350;23;20420;-76